sensor_id;sensor_type;location;lat;lon;timestamp;temperature;humidity
24158;DHT22;12316;50.904;4.200;2022-10-04T00:01:47;11.80;99.90
24158;DHT22;12316;50.904;4.200;2022-10-04T00:04:25;11.80;99.90
24158;DHT22;12316;50.904;4.200;2022-10-04T00:06:54;11.80;99.90
24158;DHT22;12316;50.904;4.200;2022-10-04T00:09:25;11.80;99.90
24158;DHT22;12316;50.904;4.200;2022-10-04T00:11:53;11.80;99.90
24158;DHT22;12316;50.904;4.200;2022-10-04T00:14:27;11.80;99.90
24158;DHT22;12316;50.904;4.200;2022-10-04T00:16:54;11.70;99.90
24158;DHT22;12316;50.904;4.200;2022-10-04T00:19:36;11.70;99.90
24158;DHT22;12316;50.904;4.200;2022-10-04T00:24:37;11.60;99.90
24158;DHT22;12316;50.904;4.200;2022-10-04T00:27:25;11.50;99.90
24158;DHT22;12316;50.904;4.200;2022-10-04T00:34:57;11.40;99.90
24158;DHT22;12316;50.904;4.200;2022-10-04T00:37:24;11.30;99.90
24158;DHT22;12316;50.904;4.200;2022-10-04T00:40:12;11.20;99.90
24158;DHT22;12316;50.904;4.200;2022-10-04T00:42:45;11.20;99.90
24158;DHT22;12316;50.904;4.200;2022-10-04T00:46:09;11.20;99.90
24158;DHT22;12316;50.904;4.200;2022-10-04T00:51:32;11.10;99.90
24158;DHT22;12316;50.904;4.200;2022-10-04T00:54:24;11.00;99.90
24158;DHT22;12316;50.904;4.200;2022-10-04T00:57:03;11.00;99.90
24158;DHT22;12316;50.904;4.200;2022-10-04T00:59:43;11.00;99.90
24158;DHT22;12316;50.904;4.200;2022-10-04T01:07:21;10.90;99.90
24158;DHT22;12316;50.904;4.200;2022-10-04T01:09:52;10.90;99.90
24158;DHT22;12316;50.904;4.200;2022-10-04T01:18:09;10.90;99.90
24158;DHT22;12316;50.904;4.200;2022-10-04T01:23:09;10.80;99.90
24158;DHT22;12316;50.904;4.200;2022-10-04T01:25:50;10.80;99.90
24158;DHT22;12316;50.904;4.200;2022-10-04T01:28:17;10.90;99.90
24158;DHT22;12316;50.904;4.200;2022-10-04T01:30:43;10.90;99.90
24158;DHT22;12316;50.904;4.200;2022-10-04T01:33:10;10.90;99.90
24158;DHT22;12316;50.904;4.200;2022-10-04T01:35:36;10.90;99.90
24158;DHT22;12316;50.904;4.200;2022-10-04T01:38:04;10.90;99.90
24158;DHT22;12316;50.904;4.200;2022-10-04T01:40:40;10.90;99.90
24158;DHT22;12316;50.904;4.200;2022-10-04T01:43:09;10.90;99.90
24158;DHT22;12316;50.904;4.200;2022-10-04T01:45:43;10.90;99.90
24158;DHT22;12316;50.904;4.200;2022-10-04T01:48:14;10.80;99.90
24158;DHT22;12316;50.904;4.200;2022-10-04T01:50:42;10.80;99.90
24158;DHT22;12316;50.904;4.200;2022-10-04T01:55:38;10.80;99.90
24158;DHT22;12316;50.904;4.200;2022-10-04T01:58:14;10.80;99.90
24158;DHT22;12316;50.904;4.200;2022-10-04T02:00:53;10.80;99.90
24158;DHT22;12316;50.904;4.200;2022-10-04T02:03:31;10.80;99.90
24158;DHT22;12316;50.904;4.200;2022-10-04T02:06:00;10.70;99.90
24158;DHT22;12316;50.904;4.200;2022-10-04T02:08:30;10.70;99.90
24158;DHT22;12316;50.904;4.200;2022-10-04T02:10:58;10.60;99.90
24158;DHT22;12316;50.904;4.200;2022-10-04T02:13:26;10.70;99.90
24158;DHT22;12316;50.904;4.200;2022-10-04T02:15:57;10.60;99.90
24158;DHT22;12316;50.904;4.200;2022-10-04T02:18:24;10.60;99.90
24158;DHT22;12316;50.904;4.200;2022-10-04T02:20:51;10.60;99.90
24158;DHT22;12316;50.904;4.200;2022-10-04T02:23:19;10.50;99.90
24158;DHT22;12316;50.904;4.200;2022-10-04T02:25:46;10.50;99.90
24158;DHT22;12316;50.904;4.200;2022-10-04T02:28:13;10.50;99.90
24158;DHT22;12316;50.904;4.200;2022-10-04T02:30:50;10.40;99.90
24158;DHT22;12316;50.904;4.200;2022-10-04T02:33:44;10.40;99.90
24158;DHT22;12316;50.904;4.200;2022-10-04T02:36:12;10.40;99.90
24158;DHT22;12316;50.904;4.200;2022-10-04T02:38:54;10.40;99.90
24158;DHT22;12316;50.904;4.200;2022-10-04T02:41:47;10.50;99.90
24158;DHT22;12316;50.904;4.200;2022-10-04T02:44:33;10.50;99.90
24158;DHT22;12316;50.904;4.200;2022-10-04T02:47:17;10.50;99.90
24158;DHT22;12316;50.904;4.200;2022-10-04T02:49:48;10.50;99.90
24158;DHT22;12316;50.904;4.200;2022-10-04T02:52:41;10.50;99.90
24158;DHT22;12316;50.904;4.200;2022-10-04T02:55:24;10.40;99.90
24158;DHT22;12316;50.904;4.200;2022-10-04T02:57:52;10.40;99.90
24158;DHT22;12316;50.904;4.200;2022-10-04T03:00:21;10.40;99.90
24158;DHT22;12316;50.904;4.200;2022-10-04T03:03:18;10.40;99.90
24158;DHT22;12316;50.904;4.200;2022-10-04T03:05:53;10.30;99.90
24158;DHT22;12316;50.904;4.200;2022-10-04T03:08:20;10.30;99.90
24158;DHT22;12316;50.904;4.200;2022-10-04T03:10:47;10.30;99.90
24158;DHT22;12316;50.904;4.200;2022-10-04T03:13:15;10.30;99.90
24158;DHT22;12316;50.904;4.200;2022-10-04T03:15:43;10.20;99.90
24158;DHT22;12316;50.904;4.200;2022-10-04T03:18:09;10.20;99.90
24158;DHT22;12316;50.904;4.200;2022-10-04T03:20:36;10.20;99.90
24158;DHT22;12316;50.904;4.200;2022-10-04T03:23:03;10.20;99.90
24158;DHT22;12316;50.904;4.200;2022-10-04T03:25:40;10.20;99.90
24158;DHT22;12316;50.904;4.200;2022-10-04T03:28:07;10.20;99.90
24158;DHT22;12316;50.904;4.200;2022-10-04T03:30:33;10.20;99.90
24158;DHT22;12316;50.904;4.200;2022-10-04T03:33:01;10.20;99.90
24158;DHT22;12316;50.904;4.200;2022-10-04T03:35:27;10.10;99.90
24158;DHT22;12316;50.904;4.200;2022-10-04T03:37:55;10.20;99.90
24158;DHT22;12316;50.904;4.200;2022-10-04T03:40:24;10.20;99.90
24158;DHT22;12316;50.904;4.200;2022-10-04T03:42:52;10.20;99.90
24158;DHT22;12316;50.904;4.200;2022-10-04T03:45:20;10.20;99.90
24158;DHT22;12316;50.904;4.200;2022-10-04T03:47:48;10.20;99.90
24158;DHT22;12316;50.904;4.200;2022-10-04T03:50:21;10.20;99.90
24158;DHT22;12316;50.904;4.200;2022-10-04T03:53:01;10.30;99.90
24158;DHT22;12316;50.904;4.200;2022-10-04T03:55:35;10.20;99.90
24158;DHT22;12316;50.904;4.200;2022-10-04T03:58:02;10.30;99.90
24158;DHT22;12316;50.904;4.200;2022-10-04T04:00:28;10.30;99.90
24158;DHT22;12316;50.904;4.200;2022-10-04T04:02:59;10.30;99.90
24158;DHT22;12316;50.904;4.200;2022-10-04T04:05:28;10.50;99.90
24158;DHT22;12316;50.904;4.200;2022-10-04T04:10:48;10.60;99.90
24158;DHT22;12316;50.904;4.200;2022-10-04T04:15:43;10.70;99.90
24158;DHT22;12316;50.904;4.200;2022-10-04T04:18:22;10.70;99.90
24158;DHT22;12316;50.904;4.200;2022-10-04T04:20:52;10.70;99.90
24158;DHT22;12316;50.904;4.200;2022-10-04T04:23:38;10.60;99.90
24158;DHT22;12316;50.904;4.200;2022-10-04T04:28:57;10.60;99.90
24158;DHT22;12316;50.904;4.200;2022-10-04T04:34:01;10.70;99.90
24158;DHT22;12316;50.904;4.200;2022-10-04T04:36:29;10.70;99.90
24158;DHT22;12316;50.904;4.200;2022-10-04T04:39:19;10.60;99.90
24158;DHT22;12316;50.904;4.200;2022-10-04T04:42:17;10.60;99.90
24158;DHT22;12316;50.904;4.200;2022-10-04T04:44:53;10.60;99.90
24158;DHT22;12316;50.904;4.200;2022-10-04T04:47:31;10.60;99.90
24158;DHT22;12316;50.904;4.200;2022-10-04T04:50:46;10.60;99.90
24158;DHT22;12316;50.904;4.200;2022-10-04T04:53:28;10.60;99.90
24158;DHT22;12316;50.904;4.200;2022-10-04T04:56:01;10.70;99.90
24158;DHT22;12316;50.904;4.200;2022-10-04T04:58:34;10.70;99.90
24158;DHT22;12316;50.904;4.200;2022-10-04T05:01:06;10.60;99.90
24158;DHT22;12316;50.904;4.200;2022-10-04T05:03:33;10.60;99.90
24158;DHT22;12316;50.904;4.200;2022-10-04T05:05:59;10.60;99.90
24158;DHT22;12316;50.904;4.200;2022-10-04T05:08:32;10.60;99.90
24158;DHT22;12316;50.904;4.200;2022-10-04T05:18:45;10.70;99.90
24158;DHT22;12316;50.904;4.200;2022-10-04T05:21:17;10.60;99.90
24158;DHT22;12316;50.904;4.200;2022-10-04T05:23:44;10.60;99.90
24158;DHT22;12316;50.904;4.200;2022-10-04T05:26:12;10.60;99.90
24158;DHT22;12316;50.904;4.200;2022-10-04T05:28:39;10.60;99.90
24158;DHT22;12316;50.904;4.200;2022-10-04T05:33:58;10.60;99.90
24158;DHT22;12316;50.904;4.200;2022-10-04T05:47:05;10.50;99.90
24158;DHT22;12316;50.904;4.200;2022-10-04T05:49:40;10.40;99.90
24158;DHT22;12316;50.904;4.200;2022-10-04T05:52:25;10.40;99.90
24158;DHT22;12316;50.904;4.200;2022-10-04T06:00:17;10.40;99.90
24158;DHT22;12316;50.904;4.200;2022-10-04T06:03:06;10.30;99.90
24158;DHT22;12316;50.904;4.200;2022-10-04T06:05:49;10.30;99.90
24158;DHT22;12316;50.904;4.200;2022-10-04T06:22:00;10.40;99.90
24158;DHT22;12316;50.904;4.200;2022-10-04T06:24:31;10.40;99.90
24158;DHT22;12316;50.904;4.200;2022-10-04T06:27:02;10.40;99.90
24158;DHT22;12316;50.904;4.200;2022-10-04T06:29:32;10.40;99.90
24158;DHT22;12316;50.904;4.200;2022-10-04T06:37:58;10.60;99.90
24158;DHT22;12316;50.904;4.200;2022-10-04T06:59:32;11.00;99.90
24158;DHT22;12316;50.904;4.200;2022-10-04T07:02:16;11.00;99.90
24158;DHT22;12316;50.904;4.200;2022-10-04T07:04:49;11.20;99.90
24158;DHT22;12316;50.904;4.200;2022-10-04T07:07:29;11.30;99.90
24158;DHT22;12316;50.904;4.200;2022-10-04T07:13:12;11.50;99.90
24158;DHT22;12316;50.904;4.200;2022-10-04T07:21:58;11.90;99.90
24158;DHT22;12316;50.904;4.200;2022-10-04T07:27:20;12.20;99.90
24158;DHT22;12316;50.904;4.200;2022-10-04T07:29:55;12.20;99.90
24158;DHT22;12316;50.904;4.200;2022-10-04T07:32:26;12.30;99.90
24158;DHT22;12316;50.904;4.200;2022-10-04T07:34:59;12.40;99.90
24158;DHT22;12316;50.904;4.200;2022-10-04T07:37:28;12.50;99.90
24158;DHT22;12316;50.904;4.200;2022-10-04T07:40:08;12.50;99.90
24158;DHT22;12316;50.904;4.200;2022-10-04T07:42:50;12.60;99.90
24158;DHT22;12316;50.904;4.200;2022-10-04T07:45:29;12.70;99.90
24158;DHT22;12316;50.904;4.200;2022-10-04T07:51:06;12.90;99.90
24158;DHT22;12316;50.904;4.200;2022-10-04T07:54:13;13.10;99.90
24158;DHT22;12316;50.904;4.200;2022-10-04T07:57:00;13.20;99.90
24158;DHT22;12316;50.904;4.200;2022-10-04T08:00:36;13.30;99.90
24158;DHT22;12316;50.904;4.200;2022-10-04T08:05:41;13.50;99.90
24158;DHT22;12316;50.904;4.200;2022-10-04T08:11:28;13.60;99.90
24158;DHT22;12316;50.904;4.200;2022-10-04T08:28:29;13.90;99.90
24158;DHT22;12316;50.904;4.200;2022-10-04T08:37:32;14.20;99.90
24158;DHT22;12316;50.904;4.200;2022-10-04T08:40:41;14.40;99.90
24158;DHT22;12316;50.904;4.200;2022-10-04T09:13:39;15.20;99.90
24158;DHT22;12316;50.904;4.200;2022-10-04T09:27:17;15.50;99.90
24158;DHT22;12316;50.904;4.200;2022-10-04T09:30:17;15.60;99.90
24158;DHT22;12316;50.904;4.200;2022-10-04T09:33:40;15.70;99.90
24158;DHT22;12316;50.904;4.200;2022-10-04T09:49:17;16.20;99.90
24158;DHT22;12316;50.904;4.200;2022-10-04T09:57:42;16.60;99.90
24158;DHT22;12316;50.904;4.200;2022-10-04T10:00:12;16.70;99.90
24158;DHT22;12316;50.904;4.200;2022-10-04T10:03:22;16.80;99.90
24158;DHT22;12316;50.904;4.200;2022-10-04T10:06:10;16.90;99.90
24158;DHT22;12316;50.904;4.200;2022-10-04T10:09:01;16.90;99.90
24158;DHT22;12316;50.904;4.200;2022-10-04T10:11:56;17.00;99.90
24158;DHT22;12316;50.904;4.200;2022-10-04T10:14:55;17.10;99.90
24158;DHT22;12316;50.904;4.200;2022-10-04T10:20:23;17.30;99.90
24158;DHT22;12316;50.904;4.200;2022-10-04T10:43:53;17.90;99.90
24158;DHT22;12316;50.904;4.200;2022-10-04T10:49:45;18.00;99.90
24158;DHT22;12316;50.904;4.200;2022-10-04T11:00:22;18.20;99.90
24158;DHT22;12316;50.904;4.200;2022-10-04T11:03:27;18.30;99.90
24158;DHT22;12316;50.904;4.200;2022-10-04T11:11:27;18.50;99.90
24158;DHT22;12316;50.904;4.200;2022-10-04T11:27:43;18.90;99.90
24158;DHT22;12316;50.904;4.200;2022-10-04T11:30:22;19.00;99.90
24158;DHT22;12316;50.904;4.200;2022-10-04T11:46:43;19.10;99.90
24158;DHT22;12316;50.904;4.200;2022-10-04T12:00:17;19.40;99.90
24158;DHT22;12316;50.904;4.200;2022-10-04T12:13:53;19.40;99.90
24158;DHT22;12316;50.904;4.200;2022-10-04T12:16:36;19.50;99.90
24158;DHT22;12316;50.904;4.200;2022-10-04T12:19:38;19.50;99.90
24158;DHT22;12316;50.904;4.200;2022-10-04T12:31:21;19.60;99.90
24158;DHT22;12316;50.904;4.200;2022-10-04T12:47:33;19.90;99.90
24158;DHT22;12316;50.904;4.200;2022-10-04T12:53:21;19.90;99.90
24158;DHT22;12316;50.904;4.200;2022-10-04T13:07:14;20.10;99.90
24158;DHT22;12316;50.904;4.200;2022-10-04T13:09:49;20.20;99.90
24158;DHT22;12316;50.904;4.200;2022-10-04T13:15:12;20.20;99.90
24158;DHT22;12316;50.904;4.200;2022-10-04T13:21:02;20.30;99.90
24158;DHT22;12316;50.904;4.200;2022-10-04T13:26:36;20.60;99.90
24158;DHT22;12316;50.904;4.200;2022-10-04T13:29:15;20.70;99.90
24158;DHT22;12316;50.904;4.200;2022-10-04T13:32:05;20.70;99.90
24158;DHT22;12316;50.904;4.200;2022-10-04T13:52:13;21.00;99.90
24158;DHT22;12316;50.904;4.200;2022-10-04T14:06:43;21.10;99.90
24158;DHT22;12316;50.904;4.200;2022-10-04T14:09:20;21.20;99.90
24158;DHT22;12316;50.904;4.200;2022-10-04T14:17:23;21.20;99.90
24158;DHT22;12316;50.904;4.200;2022-10-04T14:20:09;21.30;99.90
24158;DHT22;12316;50.904;4.200;2022-10-04T14:31:17;21.10;99.90
24158;DHT22;12316;50.904;4.200;2022-10-04T14:45:19;20.90;99.90
24158;DHT22;12316;50.904;4.200;2022-10-04T14:53:24;20.80;99.90
24158;DHT22;12316;50.904;4.200;2022-10-04T15:01:21;21.00;99.90
24158;DHT22;12316;50.904;4.200;2022-10-04T15:12:23;21.10;99.90
24158;DHT22;12316;50.904;4.200;2022-10-04T15:17:31;21.10;99.90
24158;DHT22;12316;50.904;4.200;2022-10-04T15:23:08;21.10;99.90
24158;DHT22;12316;50.904;4.200;2022-10-04T15:25:46;21.20;99.90
24158;DHT22;12316;50.904;4.200;2022-10-04T15:43:17;20.90;99.90
24158;DHT22;12316;50.904;4.200;2022-10-04T15:49:36;20.80;99.90
24158;DHT22;12316;50.904;4.200;2022-10-04T16:04:13;20.50;99.90
24158;DHT22;12316;50.904;4.200;2022-10-04T16:06:26;20.50;99.90
24158;DHT22;12316;50.904;4.200;2022-10-04T16:09:10;20.50;99.90
24158;DHT22;12316;50.904;4.200;2022-10-04T16:12:15;20.40;99.90
24158;DHT22;12316;50.904;4.200;2022-10-04T16:23:29;20.10;99.90
24158;DHT22;12316;50.904;4.200;2022-10-04T16:26:04;20.00;99.90
24158;DHT22;12316;50.904;4.200;2022-10-04T16:31:35;19.70;99.90
24158;DHT22;12316;50.904;4.200;2022-10-04T16:40:02;19.50;99.90
24158;DHT22;12316;50.904;4.200;2022-10-04T16:42:58;19.40;99.90
24158;DHT22;12316;50.904;4.200;2022-10-04T16:45:47;19.30;99.90
24158;DHT22;12316;50.904;4.200;2022-10-04T16:48:38;19.30;99.90
24158;DHT22;12316;50.904;4.200;2022-10-04T16:53:46;19.00;99.90
24158;DHT22;12316;50.904;4.200;2022-10-04T16:56:23;19.00;99.90
24158;DHT22;12316;50.904;4.200;2022-10-04T16:58:56;19.00;99.90
24158;DHT22;12316;50.904;4.200;2022-10-04T17:12:17;18.40;99.90
24158;DHT22;12316;50.904;4.200;2022-10-04T17:31:16;17.80;99.90
24158;DHT22;12316;50.904;4.200;2022-10-04T17:33:59;17.70;99.90
24158;DHT22;12316;50.904;4.200;2022-10-04T17:36:42;17.60;99.90
24158;DHT22;12316;50.904;4.200;2022-10-04T17:39:27;17.50;99.90
24158;DHT22;12316;50.904;4.200;2022-10-04T17:50:06;17.40;99.90
24158;DHT22;12316;50.904;4.200;2022-10-04T17:53:00;17.40;99.90
24158;DHT22;12316;50.904;4.200;2022-10-04T17:55:53;17.40;99.90
24158;DHT22;12316;50.904;4.200;2022-10-04T17:59:21;17.40;99.90
24158;DHT22;12316;50.904;4.200;2022-10-04T18:01:39;17.50;99.90
24158;DHT22;12316;50.904;4.200;2022-10-04T18:06:50;17.60;99.90
24158;DHT22;12316;50.904;4.200;2022-10-04T18:09:32;17.60;99.90
24158;DHT22;12316;50.904;4.200;2022-10-04T18:12:09;17.70;99.90
24158;DHT22;12316;50.904;4.200;2022-10-04T18:18:14;17.80;99.90
24158;DHT22;12316;50.904;4.200;2022-10-04T18:21:17;17.80;99.90
24158;DHT22;12316;50.904;4.200;2022-10-04T18:23:58;17.80;99.90
24158;DHT22;12316;50.904;4.200;2022-10-04T18:26:30;17.70;99.90
24158;DHT22;12316;50.904;4.200;2022-10-04T18:28:58;17.70;99.90
24158;DHT22;12316;50.904;4.200;2022-10-04T18:31:29;17.70;99.90
24158;DHT22;12316;50.904;4.200;2022-10-04T18:34:25;17.70;99.90
24158;DHT22;12316;50.904;4.200;2022-10-04T18:36:52;17.60;99.90
24158;DHT22;12316;50.904;4.200;2022-10-04T18:39:21;17.70;99.90
24158;DHT22;12316;50.904;4.200;2022-10-04T18:42:41;17.70;99.90
24158;DHT22;12316;50.904;4.200;2022-10-04T18:45:00;17.70;99.90
24158;DHT22;12316;50.904;4.200;2022-10-04T18:47:36;17.70;99.90
24158;DHT22;12316;50.904;4.200;2022-10-04T18:50:30;17.70;99.90
24158;DHT22;12316;50.904;4.200;2022-10-04T18:56:08;17.70;99.90
24158;DHT22;12316;50.904;4.200;2022-10-04T19:07:17;17.80;99.90
24158;DHT22;12316;50.904;4.200;2022-10-04T19:12:30;17.80;99.90
24158;DHT22;12316;50.904;4.200;2022-10-04T19:15:02;17.70;99.90
24158;DHT22;12316;50.904;4.200;2022-10-04T19:20:09;17.70;99.90
24158;DHT22;12316;50.904;4.200;2022-10-04T19:23:31;17.70;99.90
24158;DHT22;12316;50.904;4.200;2022-10-04T19:28:28;17.60;99.90
24158;DHT22;12316;50.904;4.200;2022-10-04T19:36:35;17.60;99.90
24158;DHT22;12316;50.904;4.200;2022-10-04T19:39:45;17.50;99.90
24158;DHT22;12316;50.904;4.200;2022-10-04T19:42:20;17.50;99.90
24158;DHT22;12316;50.904;4.200;2022-10-04T19:47:48;17.60;99.90
24158;DHT22;12316;50.904;4.200;2022-10-04T19:50:23;17.60;99.90
24158;DHT22;12316;50.904;4.200;2022-10-04T19:53:01;17.60;99.90
24158;DHT22;12316;50.904;4.200;2022-10-04T19:55:42;17.70;99.90
24158;DHT22;12316;50.904;4.200;2022-10-04T19:58:23;17.70;99.90
24158;DHT22;12316;50.904;4.200;2022-10-04T20:00:51;17.60;99.90
24158;DHT22;12316;50.904;4.200;2022-10-04T20:03:17;17.70;99.90
24158;DHT22;12316;50.904;4.200;2022-10-04T20:05:53;17.70;99.90
24158;DHT22;12316;50.904;4.200;2022-10-04T20:08:48;17.70;99.90
24158;DHT22;12316;50.904;4.200;2022-10-04T20:21:53;17.60;99.90
24158;DHT22;12316;50.904;4.200;2022-10-04T20:28:06;17.60;99.90
24158;DHT22;12316;50.904;4.200;2022-10-04T20:30:11;17.60;99.90
24158;DHT22;12316;50.904;4.200;2022-10-04T20:38:14;17.70;99.90
24158;DHT22;12316;50.904;4.200;2022-10-04T20:40:43;17.70;99.90
24158;DHT22;12316;50.904;4.200;2022-10-04T20:45:48;17.70;99.90
24158;DHT22;12316;50.904;4.200;2022-10-04T20:48:22;17.70;99.90
24158;DHT22;12316;50.904;4.200;2022-10-04T20:50:48;17.70;99.90
24158;DHT22;12316;50.904;4.200;2022-10-04T20:53:21;17.70;99.90
24158;DHT22;12316;50.904;4.200;2022-10-04T20:55:48;17.70;99.90
24158;DHT22;12316;50.904;4.200;2022-10-04T20:58:30;17.70;99.90
24158;DHT22;12316;50.904;4.200;2022-10-04T21:01:05;17.70;99.90
24158;DHT22;12316;50.904;4.200;2022-10-04T21:03:53;17.70;99.90
24158;DHT22;12316;50.904;4.200;2022-10-04T21:06:50;17.80;99.90
24158;DHT22;12316;50.904;4.200;2022-10-04T21:09:16;17.70;99.90
24158;DHT22;12316;50.904;4.200;2022-10-04T21:11:46;17.80;99.90
24158;DHT22;12316;50.904;4.200;2022-10-04T21:14:23;17.80;99.90
24158;DHT22;12316;50.904;4.200;2022-10-04T21:16:50;17.80;99.90
24158;DHT22;12316;50.904;4.200;2022-10-04T21:29:58;17.80;99.90
24158;DHT22;12316;50.904;4.200;2022-10-04T21:32:25;17.80;99.90
24158;DHT22;12316;50.904;4.200;2022-10-04T21:34:53;17.80;99.90
24158;DHT22;12316;50.904;4.200;2022-10-04T21:37:19;17.80;99.90
24158;DHT22;12316;50.904;4.200;2022-10-04T21:39:44;17.80;99.90
24158;DHT22;12316;50.904;4.200;2022-10-04T21:42:10;17.80;99.90
24158;DHT22;12316;50.904;4.200;2022-10-04T21:44:36;17.80;99.90
24158;DHT22;12316;50.904;4.200;2022-10-04T21:47:02;17.80;99.90
24158;DHT22;12316;50.904;4.200;2022-10-04T21:49:28;17.80;99.90
24158;DHT22;12316;50.904;4.200;2022-10-04T21:51:53;17.80;99.90
24158;DHT22;12316;50.904;4.200;2022-10-04T21:54:19;17.80;99.90
24158;DHT22;12316;50.904;4.200;2022-10-04T21:56:44;17.80;99.90
24158;DHT22;12316;50.904;4.200;2022-10-04T21:59:10;17.80;99.90
24158;DHT22;12316;50.904;4.200;2022-10-04T22:01:36;17.70;99.90
24158;DHT22;12316;50.904;4.200;2022-10-04T22:04:01;17.70;99.90
24158;DHT22;12316;50.904;4.200;2022-10-04T22:06:27;17.80;99.90
24158;DHT22;12316;50.904;4.200;2022-10-04T22:08:53;17.80;99.90
24158;DHT22;12316;50.904;4.200;2022-10-04T22:11:18;17.80;99.90
24158;DHT22;12316;50.904;4.200;2022-10-04T22:13:44;17.80;99.90
24158;DHT22;12316;50.904;4.200;2022-10-04T22:16:11;17.80;99.90
24158;DHT22;12316;50.904;4.200;2022-10-04T22:18:36;17.80;99.90
24158;DHT22;12316;50.904;4.200;2022-10-04T22:21:02;17.80;99.90
24158;DHT22;12316;50.904;4.200;2022-10-04T22:23:36;17.80;99.90
24158;DHT22;12316;50.904;4.200;2022-10-04T22:26:13;17.80;99.90
24158;DHT22;12316;50.904;4.200;2022-10-04T22:28:43;17.80;99.90
24158;DHT22;12316;50.904;4.200;2022-10-04T22:31:17;17.80;99.90
24158;DHT22;12316;50.904;4.200;2022-10-04T22:33:46;17.80;99.90
24158;DHT22;12316;50.904;4.200;2022-10-04T22:38:37;17.80;99.90
24158;DHT22;12316;50.904;4.200;2022-10-04T22:41:11;17.90;99.90
24158;DHT22;12316;50.904;4.200;2022-10-04T22:43:37;17.80;99.90
24158;DHT22;12316;50.904;4.200;2022-10-04T22:46:03;17.80;99.90
24158;DHT22;12316;50.904;4.200;2022-10-04T22:48:29;17.70;99.90
24158;DHT22;12316;50.904;4.200;2022-10-04T22:50:56;17.70;99.90
24158;DHT22;12316;50.904;4.200;2022-10-04T22:53:22;17.70;99.90
24158;DHT22;12316;50.904;4.200;2022-10-04T22:55:51;17.70;99.90
24158;DHT22;12316;50.904;4.200;2022-10-04T22:58:17;17.70;99.90
24158;DHT22;12316;50.904;4.200;2022-10-04T23:00:45;17.70;99.90
24158;DHT22;12316;50.904;4.200;2022-10-04T23:03:28;17.60;99.90
24158;DHT22;12316;50.904;4.200;2022-10-04T23:05:56;17.60;99.90
24158;DHT22;12316;50.904;4.200;2022-10-04T23:08:22;17.60;99.90
24158;DHT22;12316;50.904;4.200;2022-10-04T23:10:55;17.60;99.90
24158;DHT22;12316;50.904;4.200;2022-10-04T23:13:22;17.50;99.90
24158;DHT22;12316;50.904;4.200;2022-10-04T23:15:48;17.60;99.90
24158;DHT22;12316;50.904;4.200;2022-10-04T23:18:15;17.60;99.90
24158;DHT22;12316;50.904;4.200;2022-10-04T23:20:41;17.50;99.90
24158;DHT22;12316;50.904;4.200;2022-10-04T23:23:12;17.50;99.90
24158;DHT22;12316;50.904;4.200;2022-10-04T23:25:43;17.50;99.90
24158;DHT22;12316;50.904;4.200;2022-10-04T23:28:13;17.40;99.90
24158;DHT22;12316;50.904;4.200;2022-10-04T23:30:39;17.50;99.90
24158;DHT22;12316;50.904;4.200;2022-10-04T23:33:16;17.40;99.90
24158;DHT22;12316;50.904;4.200;2022-10-04T23:35:42;17.40;99.90
24158;DHT22;12316;50.904;4.200;2022-10-04T23:38:19;17.50;99.90
24158;DHT22;12316;50.904;4.200;2022-10-04T23:40:45;17.40;99.90
24158;DHT22;12316;50.904;4.200;2022-10-04T23:43:19;17.40;99.90
24158;DHT22;12316;50.904;4.200;2022-10-04T23:45:46;17.40;99.90
24158;DHT22;12316;50.904;4.200;2022-10-04T23:48:17;17.50;99.90
24158;DHT22;12316;50.904;4.200;2022-10-04T23:50:46;17.50;99.90
24158;DHT22;12316;50.904;4.200;2022-10-04T23:53:22;17.40;99.90
24158;DHT22;12316;50.904;4.200;2022-10-04T23:55:51;17.40;99.90
24158;DHT22;12316;50.904;4.200;2022-10-04T23:58:22;17.40;99.90
